sensor_id;sensor_type;location;lat;lon;timestamp;P1;durP1;ratioP1;P2;durP2;ratioP2
69220;SDS011;56331;51.992;20.910;2023-02-03T00:01:25;4.50;;;1.20;;
69220;SDS011;56331;51.992;20.910;2023-02-03T00:03:51;2.67;;;1.40;;
69220;SDS011;56331;51.992;20.910;2023-02-03T00:06:18;3.67;;;1.55;;
69220;SDS011;56331;51.992;20.910;2023-02-03T00:08:44;3.27;;;1.30;;
69220;SDS011;56331;51.992;20.910;2023-02-03T00:11:14;3.15;;;1.55;;
69220;SDS011;56331;51.992;20.910;2023-02-03T00:13:40;2.83;;;1.13;;
69220;SDS011;56331;51.992;20.910;2023-02-03T00:16:07;3.17;;;1.25;;
69220;SDS011;56331;51.992;20.910;2023-02-03T00:18:33;2.40;;;1.40;;
69220;SDS011;56331;51.992;20.910;2023-02-03T00:21:00;2.33;;;1.20;;
69220;SDS011;56331;51.992;20.910;2023-02-03T00:23:26;3.65;;;1.35;;
69220;SDS011;56331;51.992;20.910;2023-02-03T00:25:54;2.62;;;1.30;;
69220;SDS011;56331;51.992;20.910;2023-02-03T00:28:21;2.65;;;1.30;;
69220;SDS011;56331;51.992;20.910;2023-02-03T00:30:47;2.52;;;1.17;;
69220;SDS011;56331;51.992;20.910;2023-02-03T00:33:14;3.22;;;1.27;;
69220;SDS011;56331;51.992;20.910;2023-02-03T00:35:42;2.40;;;1.40;;
69220;SDS011;56331;51.992;20.910;2023-02-03T00:38:09;2.30;;;1.17;;
69220;SDS011;56331;51.992;20.910;2023-02-03T00:40:35;1.85;;;1.10;;
69220;SDS011;56331;51.992;20.910;2023-02-03T00:43:02;2.47;;;1.27;;
69220;SDS011;56331;51.992;20.910;2023-02-03T00:45:28;2.37;;;1.15;;
69220;SDS011;56331;51.992;20.910;2023-02-03T00:47:55;1.42;;;0.98;;
69220;SDS011;56331;51.992;20.910;2023-02-03T00:50:21;3.50;;;1.10;;
69220;SDS011;56331;51.992;20.910;2023-02-03T00:52:52;2.30;;;1.12;;
69220;SDS011;56331;51.992;20.910;2023-02-03T00:55:19;2.22;;;0.98;;
69220;SDS011;56331;51.992;20.910;2023-02-03T00:57:45;2.00;;;1.05;;
69220;SDS011;56331;51.992;20.910;2023-02-03T01:00:12;2.70;;;1.17;;
69220;SDS011;56331;51.992;20.910;2023-02-03T01:02:39;2.35;;;1.30;;
69220;SDS011;56331;51.992;20.910;2023-02-03T01:05:05;2.75;;;1.20;;
69220;SDS011;56331;51.992;20.910;2023-02-03T01:07:32;2.98;;;1.22;;
69220;SDS011;56331;51.992;20.910;2023-02-03T01:09:59;1.98;;;1.40;;
69220;SDS011;56331;51.992;20.910;2023-02-03T01:12:27;2.05;;;1.30;;
69220;SDS011;56331;51.992;20.910;2023-02-03T01:14:54;2.22;;;1.00;;
69220;SDS011;56331;51.992;20.910;2023-02-03T01:17:21;3.10;;;1.00;;
69220;SDS011;56331;51.992;20.910;2023-02-03T01:19:48;1.65;;;0.93;;
69220;SDS011;56331;51.992;20.910;2023-02-03T01:22:16;2.50;;;1.22;;
69220;SDS011;56331;51.992;20.910;2023-02-03T01:24:43;2.27;;;1.10;;
69220;SDS011;56331;51.992;20.910;2023-02-03T01:27:09;3.45;;;1.10;;
69220;SDS011;56331;51.992;20.910;2023-02-03T01:29:42;2.65;;;1.20;;
69220;SDS011;56331;51.992;20.910;2023-02-03T01:32:08;2.05;;;1.20;;
69220;SDS011;56331;51.992;20.910;2023-02-03T01:34:35;2.42;;;1.30;;
69220;SDS011;56331;51.992;20.910;2023-02-03T01:37:01;2.10;;;0.98;;
69220;SDS011;56331;51.992;20.910;2023-02-03T01:39:27;1.87;;;1.12;;
69220;SDS011;56331;51.992;20.910;2023-02-03T01:41:54;1.45;;;1.00;;
69220;SDS011;56331;51.992;20.910;2023-02-03T01:47:10;1.87;;;1.10;;
69220;SDS011;56331;51.992;20.910;2023-02-03T01:49:43;3.42;;;1.20;;
69220;SDS011;56331;51.992;20.910;2023-02-03T01:52:12;3.52;;;1.30;;
69220;SDS011;56331;51.992;20.910;2023-02-03T01:54:40;1.67;;;1.07;;
69220;SDS011;56331;51.992;20.910;2023-02-03T01:57:25;1.90;;;1.20;;
69220;SDS011;56331;51.992;20.910;2023-02-03T01:59:50;1.82;;;1.00;;
69220;SDS011;56331;51.992;20.910;2023-02-03T02:02:18;2.00;;;1.10;;
69220;SDS011;56331;51.992;20.910;2023-02-03T02:04:51;1.98;;;1.00;;
69220;SDS011;56331;51.992;20.910;2023-02-03T02:07:19;1.90;;;1.07;;
69220;SDS011;56331;51.992;20.910;2023-02-03T02:09:45;2.10;;;1.17;;
69220;SDS011;56331;51.992;20.910;2023-02-03T02:12:12;1.65;;;0.93;;
69220;SDS011;56331;51.992;20.910;2023-02-03T02:14:39;2.12;;;1.02;;
69220;SDS011;56331;51.992;20.910;2023-02-03T02:20:06;1.42;;;1.00;;
69220;SDS011;56331;51.992;20.910;2023-02-03T02:25:18;1.60;;;1.07;;
69220;SDS011;56331;51.992;20.910;2023-02-03T02:33:22;1.47;;;0.90;;
69220;SDS011;56331;51.992;20.910;2023-02-03T02:36:12;1.55;;;1.00;;
69220;SDS011;56331;51.992;20.910;2023-02-03T02:39:06;1.80;;;0.95;;
69220;SDS011;56331;51.992;20.910;2023-02-03T02:44:20;2.27;;;0.93;;
69220;SDS011;56331;51.992;20.910;2023-02-03T02:46:51;1.40;;;1.10;;
69220;SDS011;56331;51.992;20.910;2023-02-03T02:54:17;2.62;;;0.95;;
69220;SDS011;56331;51.992;20.910;2023-02-03T02:56:49;1.90;;;1.25;;
69220;SDS011;56331;51.992;20.910;2023-02-03T03:01:45;1.72;;;1.00;;
69220;SDS011;56331;51.992;20.910;2023-02-03T03:04:12;2.17;;;1.20;;
69220;SDS011;56331;51.992;20.910;2023-02-03T03:11:44;1.35;;;0.90;;
69220;SDS011;56331;51.992;20.910;2023-02-03T03:14:12;2.75;;;1.10;;
69220;SDS011;56331;51.992;20.910;2023-02-03T03:16:43;1.35;;;1.00;;
69220;SDS011;56331;51.992;20.910;2023-02-03T03:21:42;2.12;;;1.07;;
69220;SDS011;56331;51.992;20.910;2023-02-03T03:24:11;1.87;;;1.07;;
69220;SDS011;56331;51.992;20.910;2023-02-03T03:26:42;2.55;;;1.07;;
69220;SDS011;56331;51.992;20.910;2023-02-03T03:29:18;2.08;;;1.12;;
69220;SDS011;56331;51.992;20.910;2023-02-03T03:31:49;1.92;;;1.12;;
69220;SDS011;56331;51.992;20.910;2023-02-03T03:34:16;2.40;;;1.25;;
69220;SDS011;56331;51.992;20.910;2023-02-03T03:36:53;3.15;;;1.10;;
69220;SDS011;56331;51.992;20.910;2023-02-03T03:42:12;2.45;;;0.93;;
69220;SDS011;56331;51.992;20.910;2023-02-03T03:44:46;1.62;;;1.12;;
69220;SDS011;56331;51.992;20.910;2023-02-03T03:49:57;1.70;;;1.10;;
69220;SDS011;56331;51.992;20.910;2023-02-03T03:54:55;1.40;;;1.02;;
69220;SDS011;56331;51.992;20.910;2023-02-03T03:57:25;1.92;;;1.15;;
69220;SDS011;56331;51.992;20.910;2023-02-03T03:59:57;1.62;;;1.07;;
69220;SDS011;56331;51.992;20.910;2023-02-03T04:02:25;1.62;;;0.98;;
69220;SDS011;56331;51.992;20.910;2023-02-03T04:04:54;2.20;;;1.10;;
69220;SDS011;56331;51.992;20.910;2023-02-03T04:09:52;1.60;;;1.00;;
69220;SDS011;56331;51.992;20.910;2023-02-03T04:12:22;1.98;;;1.17;;
69220;SDS011;56331;51.992;20.910;2023-02-03T04:14:49;1.65;;;1.10;;
69220;SDS011;56331;51.992;20.910;2023-02-03T04:17:16;1.75;;;1.00;;
69220;SDS011;56331;51.992;20.910;2023-02-03T04:19:44;1.82;;;1.05;;
69220;SDS011;56331;51.992;20.910;2023-02-03T04:22:11;1.82;;;1.10;;
69220;SDS011;56331;51.992;20.910;2023-02-03T04:24:37;2.35;;;1.12;;
69220;SDS011;56331;51.992;20.910;2023-02-03T04:27:04;2.27;;;1.27;;
69220;SDS011;56331;51.992;20.910;2023-02-03T04:29:31;2.02;;;1.22;;
69220;SDS011;56331;51.992;20.910;2023-02-03T04:31:57;2.42;;;1.12;;
69220;SDS011;56331;51.992;20.910;2023-02-03T04:34:24;1.77;;;1.10;;
69220;SDS011;56331;51.992;20.910;2023-02-03T04:36:50;1.12;;;0.90;;
69220;SDS011;56331;51.992;20.910;2023-02-03T04:39:17;2.52;;;1.10;;
69220;SDS011;56331;51.992;20.910;2023-02-03T04:41:43;2.15;;;1.17;;
69220;SDS011;56331;51.992;20.910;2023-02-03T04:44:10;1.80;;;1.10;;
69220;SDS011;56331;51.992;20.910;2023-02-03T04:46:36;2.08;;;1.10;;
69220;SDS011;56331;51.992;20.910;2023-02-03T04:49:02;1.67;;;1.02;;
69220;SDS011;56331;51.992;20.910;2023-02-03T04:51:29;2.08;;;1.10;;
69220;SDS011;56331;51.992;20.910;2023-02-03T04:53:55;1.37;;;0.90;;
69220;SDS011;56331;51.992;20.910;2023-02-03T04:56:22;1.95;;;1.10;;
69220;SDS011;56331;51.992;20.910;2023-02-03T04:58:53;1.90;;;1.20;;
69220;SDS011;56331;51.992;20.910;2023-02-03T05:01:19;2.50;;;1.20;;
69220;SDS011;56331;51.992;20.910;2023-02-03T05:03:46;2.27;;;1.22;;
69220;SDS011;56331;51.992;20.910;2023-02-03T05:06:13;2.40;;;1.20;;
69220;SDS011;56331;51.992;20.910;2023-02-03T05:08:39;1.47;;;0.82;;
69220;SDS011;56331;51.992;20.910;2023-02-03T05:11:05;1.40;;;1.07;;
69220;SDS011;56331;51.992;20.910;2023-02-03T05:13:32;1.60;;;0.95;;
69220;SDS011;56331;51.992;20.910;2023-02-03T05:15:58;1.72;;;1.10;;
69220;SDS011;56331;51.992;20.910;2023-02-03T05:18:28;1.37;;;1.10;;
69220;SDS011;56331;51.992;20.910;2023-02-03T05:20:54;1.35;;;0.90;;
69220;SDS011;56331;51.992;20.910;2023-02-03T05:23:21;2.50;;;1.02;;
69220;SDS011;56331;51.992;20.910;2023-02-03T05:25:47;1.85;;;1.17;;
69220;SDS011;56331;51.992;20.910;2023-02-03T05:28:14;1.90;;;1.20;;
69220;SDS011;56331;51.992;20.910;2023-02-03T05:30:40;2.10;;;1.40;;
69220;SDS011;56331;51.992;20.910;2023-02-03T05:33:07;1.55;;;1.02;;
69220;SDS011;56331;51.992;20.910;2023-02-03T05:35:33;1.85;;;1.10;;
69220;SDS011;56331;51.992;20.910;2023-02-03T05:38:00;2.35;;;1.20;;
69220;SDS011;56331;51.992;20.910;2023-02-03T05:40:27;1.77;;;0.90;;
69220;SDS011;56331;51.992;20.910;2023-02-03T05:43:12;2.15;;;1.30;;
69220;SDS011;56331;51.992;20.910;2023-02-03T05:45:38;1.30;;;0.98;;
69220;SDS011;56331;51.992;20.910;2023-02-03T05:48:05;1.50;;;0.98;;
69220;SDS011;56331;51.992;20.910;2023-02-03T05:50:32;1.70;;;1.10;;
69220;SDS011;56331;51.992;20.910;2023-02-03T05:52:59;1.47;;;1.07;;
69220;SDS011;56331;51.992;20.910;2023-02-03T05:55:27;1.65;;;1.17;;
69220;SDS011;56331;51.992;20.910;2023-02-03T05:57:54;1.90;;;1.30;;
69220;SDS011;56331;51.992;20.910;2023-02-03T06:00:21;1.57;;;1.17;;
69220;SDS011;56331;51.992;20.910;2023-02-03T06:02:51;1.87;;;1.30;;
69220;SDS011;56331;51.992;20.910;2023-02-03T06:05:20;2.25;;;1.40;;
69220;SDS011;56331;51.992;20.910;2023-02-03T06:07:48;2.50;;;1.25;;
69220;SDS011;56331;51.992;20.910;2023-02-03T06:10:15;2.17;;;1.10;;
69220;SDS011;56331;51.992;20.910;2023-02-03T06:12:43;2.08;;;1.20;;
69220;SDS011;56331;51.992;20.910;2023-02-03T06:15:09;2.00;;;1.27;;
69220;SDS011;56331;51.992;20.910;2023-02-03T06:17:36;1.95;;;1.17;;
69220;SDS011;56331;51.992;20.910;2023-02-03T06:20:06;3.22;;;1.30;;
69220;SDS011;56331;51.992;20.910;2023-02-03T06:22:34;1.77;;;1.20;;
69220;SDS011;56331;51.992;20.910;2023-02-03T06:25:01;1.92;;;1.20;;
69220;SDS011;56331;51.992;20.910;2023-02-03T06:27:28;2.70;;;1.15;;
69220;SDS011;56331;51.992;20.910;2023-02-03T06:29:54;2.72;;;1.32;;
69220;SDS011;56331;51.992;20.910;2023-02-03T06:32:24;1.57;;;1.20;;
69220;SDS011;56331;51.992;20.910;2023-02-03T06:34:50;2.50;;;1.30;;
69220;SDS011;56331;51.992;20.910;2023-02-03T06:37:16;2.72;;;1.30;;
69220;SDS011;56331;51.992;20.910;2023-02-03T06:39:43;3.08;;;1.45;;
69220;SDS011;56331;51.992;20.910;2023-02-03T06:42:09;1.85;;;1.22;;
69220;SDS011;56331;51.992;20.910;2023-02-03T06:44:36;2.87;;;1.55;;
69220;SDS011;56331;51.992;20.910;2023-02-03T06:47:02;2.12;;;1.22;;
69220;SDS011;56331;51.992;20.910;2023-02-03T06:49:28;4.00;;;1.40;;
69220;SDS011;56331;51.992;20.910;2023-02-03T06:51:55;2.22;;;1.55;;
69220;SDS011;56331;51.992;20.910;2023-02-03T06:54:21;2.50;;;1.32;;
69220;SDS011;56331;51.992;20.910;2023-02-03T06:56:47;2.62;;;1.55;;
69220;SDS011;56331;51.992;20.910;2023-02-03T06:59:14;2.60;;;1.52;;
69220;SDS011;56331;51.992;20.910;2023-02-03T07:01:40;2.37;;;1.55;;
69220;SDS011;56331;51.992;20.910;2023-02-03T07:04:07;2.22;;;1.42;;
69220;SDS011;56331;51.992;20.910;2023-02-03T07:06:34;2.42;;;1.42;;
69220;SDS011;56331;51.992;20.910;2023-02-03T07:09:02;6.12;;;4.22;;
69220;SDS011;56331;51.992;20.910;2023-02-03T07:11:30;5.50;;;2.75;;
69220;SDS011;56331;51.992;20.910;2023-02-03T07:14:00;3.20;;;2.02;;
69220;SDS011;56331;51.992;20.910;2023-02-03T07:16:28;3.52;;;2.00;;
69220;SDS011;56331;51.992;20.910;2023-02-03T07:18:56;3.87;;;1.90;;
69220;SDS011;56331;51.992;20.910;2023-02-03T07:21:23;3.08;;;2.02;;
69220;SDS011;56331;51.992;20.910;2023-02-03T07:23:50;2.62;;;1.72;;
69220;SDS011;56331;51.992;20.910;2023-02-03T07:26:16;5.50;;;1.80;;
69220;SDS011;56331;51.992;20.910;2023-02-03T07:28:43;3.95;;;2.00;;
69220;SDS011;56331;51.992;20.910;2023-02-03T07:31:10;4.20;;;2.15;;
69220;SDS011;56331;51.992;20.910;2023-02-03T07:33:37;3.02;;;1.98;;
69220;SDS011;56331;51.992;20.910;2023-02-03T07:36:04;3.42;;;2.15;;
69220;SDS011;56331;51.992;20.910;2023-02-03T07:38:32;3.90;;;2.00;;
69220;SDS011;56331;51.992;20.910;2023-02-03T07:40:58;3.10;;;1.85;;
69220;SDS011;56331;51.992;20.910;2023-02-03T07:43:24;4.45;;;2.10;;
69220;SDS011;56331;51.992;20.910;2023-02-03T07:45:51;5.22;;;2.15;;
69220;SDS011;56331;51.992;20.910;2023-02-03T07:48:17;5.42;;;2.20;;
69220;SDS011;56331;51.992;20.910;2023-02-03T07:50:43;12.63;;;3.17;;
69220;SDS011;56331;51.992;20.910;2023-02-03T07:53:10;15.58;;;3.02;;
69220;SDS011;56331;51.992;20.910;2023-02-03T07:55:39;15.10;;;3.50;;
69220;SDS011;56331;51.992;20.910;2023-02-03T07:58:13;21.87;;;4.25;;
69220;SDS011;56331;51.992;20.910;2023-02-03T08:00:37;17.75;;;3.50;;
69220;SDS011;56331;51.992;20.910;2023-02-03T08:03:03;13.13;;;3.40;;
69220;SDS011;56331;51.992;20.910;2023-02-03T08:05:30;12.40;;;3.17;;
69220;SDS011;56331;51.992;20.910;2023-02-03T08:07:56;16.65;;;4.22;;
69220;SDS011;56331;51.992;20.910;2023-02-03T08:10:24;14.30;;;3.80;;
69220;SDS011;56331;51.992;20.910;2023-02-03T08:12:54;11.65;;;3.80;;
69220;SDS011;56331;51.992;20.910;2023-02-03T08:17:51;15.32;;;3.35;;
69220;SDS011;56331;51.992;20.910;2023-02-03T08:20:16;15.93;;;3.33;;
69220;SDS011;56331;51.992;20.910;2023-02-03T08:22:43;14.35;;;4.45;;
69220;SDS011;56331;51.992;20.910;2023-02-03T08:25:09;12.85;;;3.30;;
69220;SDS011;56331;51.992;20.910;2023-02-03T08:27:36;8.15;;;3.37;;
69220;SDS011;56331;51.992;20.910;2023-02-03T08:30:04;10.43;;;3.52;;
69220;SDS011;56331;51.992;20.910;2023-02-03T08:32:31;9.50;;;3.02;;
69220;SDS011;56331;51.992;20.910;2023-02-03T08:34:58;11.95;;;3.65;;
69220;SDS011;56331;51.992;20.910;2023-02-03T08:37:24;10.35;;;3.12;;
69220;SDS011;56331;51.992;20.910;2023-02-03T08:39:53;9.78;;;3.42;;
69220;SDS011;56331;51.992;20.910;2023-02-03T08:42:20;13.40;;;3.33;;
69220;SDS011;56331;51.992;20.910;2023-02-03T08:44:46;11.12;;;3.30;;
69220;SDS011;56331;51.992;20.910;2023-02-03T08:47:14;13.08;;;3.65;;
69220;SDS011;56331;51.992;20.910;2023-02-03T08:49:41;4.70;;;2.58;;
69220;SDS011;56331;51.992;20.910;2023-02-03T08:52:09;9.93;;;3.30;;
69220;SDS011;56331;51.992;20.910;2023-02-03T08:54:37;7.60;;;3.05;;
69220;SDS011;56331;51.992;20.910;2023-02-03T08:57:04;8.40;;;3.52;;
69220;SDS011;56331;51.992;20.910;2023-02-03T08:59:31;6.80;;;2.85;;
69220;SDS011;56331;51.992;20.910;2023-02-03T09:02:00;7.33;;;2.98;;
69220;SDS011;56331;51.992;20.910;2023-02-03T09:04:27;8.63;;;2.70;;
69220;SDS011;56331;51.992;20.910;2023-02-03T09:06:54;6.95;;;2.87;;
69220;SDS011;56331;51.992;20.910;2023-02-03T09:09:20;7.30;;;3.00;;
69220;SDS011;56331;51.992;20.910;2023-02-03T09:11:48;4.62;;;2.62;;
69220;SDS011;56331;51.992;20.910;2023-02-03T09:14:14;5.35;;;2.45;;
69220;SDS011;56331;51.992;20.910;2023-02-03T09:16:41;5.85;;;2.70;;
69220;SDS011;56331;51.992;20.910;2023-02-03T09:19:07;6.22;;;2.85;;
69220;SDS011;56331;51.992;20.910;2023-02-03T09:21:34;7.28;;;2.50;;
69220;SDS011;56331;51.992;20.910;2023-02-03T09:24:01;4.72;;;2.30;;
69220;SDS011;56331;51.992;20.910;2023-02-03T09:26:28;5.92;;;2.62;;
69220;SDS011;56331;51.992;20.910;2023-02-03T09:28:57;5.12;;;2.17;;
69220;SDS011;56331;51.992;20.910;2023-02-03T09:31:31;7.72;;;2.52;;
69220;SDS011;56331;51.992;20.910;2023-02-03T09:33:55;4.25;;;2.27;;
69220;SDS011;56331;51.992;20.910;2023-02-03T09:36:24;4.17;;;2.27;;
69220;SDS011;56331;51.992;20.910;2023-02-03T09:38:50;4.28;;;2.05;;
69220;SDS011;56331;51.992;20.910;2023-02-03T09:41:21;4.72;;;2.22;;
69220;SDS011;56331;51.992;20.910;2023-02-03T09:47:02;3.98;;;2.37;;
69220;SDS011;56331;51.992;20.910;2023-02-03T09:49:37;3.60;;;1.82;;
69220;SDS011;56331;51.992;20.910;2023-02-03T09:52:13;2.47;;;1.60;;
69220;SDS011;56331;51.992;20.910;2023-02-03T09:54:44;2.95;;;1.65;;
69220;SDS011;56331;51.992;20.910;2023-02-03T09:57:29;2.92;;;1.90;;
69220;SDS011;56331;51.992;20.910;2023-02-03T09:59:59;4.17;;;1.90;;
69220;SDS011;56331;51.992;20.910;2023-02-03T10:02:39;3.42;;;1.85;;
69220;SDS011;56331;51.992;20.910;2023-02-03T10:19:14;4.28;;;2.00;;
69220;SDS011;56331;51.992;20.910;2023-02-03T10:21:52;3.62;;;1.70;;
69220;SDS011;56331;51.992;20.910;2023-02-03T10:24:23;5.47;;;1.77;;
69220;SDS011;56331;51.992;20.910;2023-02-03T10:26:57;2.27;;;1.55;;
69220;SDS011;56331;51.992;20.910;2023-02-03T10:29:28;1.92;;;1.50;;
69220;SDS011;56331;51.992;20.910;2023-02-03T10:31:57;2.37;;;1.42;;
69220;SDS011;56331;51.992;20.910;2023-02-03T10:34:24;2.30;;;1.40;;
69220;SDS011;56331;51.992;20.910;2023-02-03T10:36:55;3.42;;;1.70;;
69220;SDS011;56331;51.992;20.910;2023-02-03T10:41:58;3.65;;;1.65;;
69220;SDS011;56331;51.992;20.910;2023-02-03T10:44:36;2.85;;;1.67;;
69220;SDS011;56331;51.992;20.910;2023-02-03T10:47:08;2.90;;;1.60;;
69220;SDS011;56331;51.992;20.910;2023-02-03T10:49:44;3.30;;;1.82;;
69220;SDS011;56331;51.992;20.910;2023-02-03T10:52:23;2.80;;;1.50;;
69220;SDS011;56331;51.992;20.910;2023-02-03T10:54:44;3.20;;;1.80;;
69220;SDS011;56331;51.992;20.910;2023-02-03T10:57:11;2.67;;;1.60;;
69220;SDS011;56331;51.992;20.910;2023-02-03T10:59:46;2.75;;;1.55;;
69220;SDS011;56331;51.992;20.910;2023-02-03T11:02:24;2.02;;;1.45;;
69220;SDS011;56331;51.992;20.910;2023-02-03T11:05:16;2.37;;;1.52;;
69220;SDS011;56331;51.992;20.910;2023-02-03T11:07:49;3.95;;;1.50;;
69220;SDS011;56331;51.992;20.910;2023-02-03T11:10:27;2.83;;;1.27;;
69220;SDS011;56331;51.992;20.910;2023-02-03T11:13:10;2.35;;;1.52;;
69220;SDS011;56331;51.992;20.910;2023-02-03T11:21:07;2.15;;;1.55;;
69220;SDS011;56331;51.992;20.910;2023-02-03T11:23:37;1.90;;;1.32;;
69220;SDS011;56331;51.992;20.910;2023-02-03T11:26:14;3.45;;;1.40;;
69220;SDS011;56331;51.992;20.910;2023-02-03T11:28:42;1.90;;;1.35;;
69220;SDS011;56331;51.992;20.910;2023-02-03T11:31:16;5.58;;;1.40;;
69220;SDS011;56331;51.992;20.910;2023-02-03T11:33:47;2.00;;;1.42;;
69220;SDS011;56331;51.992;20.910;2023-02-03T11:36:16;2.83;;;1.63;;
69220;SDS011;56331;51.992;20.910;2023-02-03T11:38:43;2.47;;;1.52;;
69220;SDS011;56331;51.992;20.910;2023-02-03T11:41:17;2.90;;;1.60;;
69220;SDS011;56331;51.992;20.910;2023-02-03T11:43:46;2.87;;;1.67;;
69220;SDS011;56331;51.992;20.910;2023-02-03T11:46:13;1.65;;;1.07;;
69220;SDS011;56331;51.992;20.910;2023-02-03T11:51:38;2.98;;;1.72;;
69220;SDS011;56331;51.992;20.910;2023-02-03T11:57:31;2.52;;;1.47;;
69220;SDS011;56331;51.992;20.910;2023-02-03T12:00:19;4.37;;;1.60;;
69220;SDS011;56331;51.992;20.910;2023-02-03T12:25:00;2.65;;;1.60;;
69220;SDS011;56331;51.992;20.910;2023-02-03T12:30:31;2.42;;;1.50;;
69220;SDS011;56331;51.992;20.910;2023-02-03T12:32:56;2.83;;;1.50;;
69220;SDS011;56331;51.992;20.910;2023-02-03T12:38:05;2.40;;;1.47;;
69220;SDS011;56331;51.992;20.910;2023-02-03T12:40:35;3.30;;;1.80;;
69220;SDS011;56331;51.992;20.910;2023-02-03T12:46:01;2.83;;;1.62;;
69220;SDS011;56331;51.992;20.910;2023-02-03T12:51:14;2.92;;;1.50;;
69220;SDS011;56331;51.992;20.910;2023-02-03T12:56:11;2.00;;;1.30;;
69220;SDS011;56331;51.992;20.910;2023-02-03T12:58:46;2.67;;;1.57;;
69220;SDS011;56331;51.992;20.910;2023-02-03T13:01:29;2.72;;;1.50;;
69220;SDS011;56331;51.992;20.910;2023-02-03T13:06:43;3.65;;;1.75;;
69220;SDS011;56331;51.992;20.910;2023-02-03T13:17:52;2.52;;;1.50;;
69220;SDS011;56331;51.992;20.910;2023-02-03T13:20:32;4.45;;;1.70;;
69220;SDS011;56331;51.992;20.910;2023-02-03T13:23:05;2.87;;;1.52;;
69220;SDS011;56331;51.992;20.910;2023-02-03T13:31:16;3.95;;;2.25;;
69220;SDS011;56331;51.992;20.910;2023-02-03T13:42:25;2.92;;;1.90;;
69220;SDS011;56331;51.992;20.910;2023-02-03T13:47:43;3.75;;;2.08;;
69220;SDS011;56331;51.992;20.910;2023-02-03T13:50:28;3.70;;;1.77;;
69220;SDS011;56331;51.992;20.910;2023-02-03T14:05:46;5.20;;;2.83;;
69220;SDS011;56331;51.992;20.910;2023-02-03T14:16:45;5.08;;;2.98;;
69220;SDS011;56331;51.992;20.910;2023-02-03T14:21:53;7.75;;;4.15;;
69220;SDS011;56331;51.992;20.910;2023-02-03T14:24:34;10.78;;;3.60;;
69220;SDS011;56331;51.992;20.910;2023-02-03T14:27:16;11.38;;;3.85;;
69220;SDS011;56331;51.992;20.910;2023-02-03T14:30:02;12.30;;;5.00;;
69220;SDS011;56331;51.992;20.910;2023-02-03T14:32:50;10.50;;;4.25;;
69220;SDS011;56331;51.992;20.910;2023-02-03T14:35:31;9.70;;;4.60;;
69220;SDS011;56331;51.992;20.910;2023-02-03T14:38:01;7.40;;;3.77;;
69220;SDS011;56331;51.992;20.910;2023-02-03T14:54:48;7.97;;;4.03;;
69220;SDS011;56331;51.992;20.910;2023-02-03T14:59:55;8.85;;;3.85;;
69220;SDS011;56331;51.992;20.910;2023-02-03T15:02:24;11.00;;;3.95;;
69220;SDS011;56331;51.992;20.910;2023-02-03T15:05:40;6.10;;;3.10;;
69220;SDS011;56331;51.992;20.910;2023-02-03T15:07:57;6.95;;;3.50;;
69220;SDS011;56331;51.992;20.910;2023-02-03T15:13:29;5.30;;;3.42;;
69220;SDS011;56331;51.992;20.910;2023-02-03T15:16:04;7.25;;;3.58;;
69220;SDS011;56331;51.992;20.910;2023-02-03T15:18:36;6.62;;;3.70;;
69220;SDS011;56331;51.992;20.910;2023-02-03T15:21:01;10.65;;;4.00;;
69220;SDS011;56331;51.992;20.910;2023-02-03T15:23:29;7.05;;;3.55;;
69220;SDS011;56331;51.992;20.910;2023-02-03T15:25:59;6.10;;;3.42;;
69220;SDS011;56331;51.992;20.910;2023-02-03T15:28:27;7.27;;;3.77;;
69220;SDS011;56331;51.992;20.910;2023-02-03T15:31:00;6.62;;;3.75;;
69220;SDS011;56331;51.992;20.910;2023-02-03T15:33:28;7.30;;;4.28;;
69220;SDS011;56331;51.992;20.910;2023-02-03T15:35:58;8.03;;;4.05;;
69220;SDS011;56331;51.992;20.910;2023-02-03T15:38:28;7.50;;;3.98;;
69220;SDS011;56331;51.992;20.910;2023-02-03T15:40:57;6.37;;;3.75;;
69220;SDS011;56331;51.992;20.910;2023-02-03T15:43:26;6.90;;;3.62;;
69220;SDS011;56331;51.992;20.910;2023-02-03T15:45:59;7.47;;;3.80;;
69220;SDS011;56331;51.992;20.910;2023-02-03T15:48:56;7.37;;;3.72;;
69220;SDS011;56331;51.992;20.910;2023-02-03T15:51:23;6.22;;;3.60;;
69220;SDS011;56331;51.992;20.910;2023-02-03T15:53:53;7.83;;;3.72;;
69220;SDS011;56331;51.992;20.910;2023-02-03T15:58:52;7.15;;;3.60;;
69220;SDS011;56331;51.992;20.910;2023-02-03T16:01:23;5.95;;;3.12;;
69220;SDS011;56331;51.992;20.910;2023-02-03T16:03:51;8.93;;;3.67;;
69220;SDS011;56331;51.992;20.910;2023-02-03T16:06:30;6.95;;;3.70;;
69220;SDS011;56331;51.992;20.910;2023-02-03T16:09:04;6.78;;;3.30;;
69220;SDS011;56331;51.992;20.910;2023-02-03T16:11:38;6.03;;;3.42;;
69220;SDS011;56331;51.992;20.910;2023-02-03T16:14:06;6.42;;;3.58;;
69220;SDS011;56331;51.992;20.910;2023-02-03T16:16:50;6.40;;;3.50;;
69220;SDS011;56331;51.992;20.910;2023-02-03T16:19:20;5.83;;;3.15;;
69220;SDS011;56331;51.992;20.910;2023-02-03T16:24:31;5.03;;;2.65;;
69220;SDS011;56331;51.992;20.910;2023-02-03T16:29:45;8.53;;;3.52;;
69220;SDS011;56331;51.992;20.910;2023-02-03T16:32:31;8.10;;;3.50;;
69220;SDS011;56331;51.992;20.910;2023-02-03T16:35:16;5.97;;;3.33;;
69220;SDS011;56331;51.992;20.910;2023-02-03T16:38:09;4.75;;;3.15;;
69220;SDS011;56331;51.992;20.910;2023-02-03T16:40:57;8.95;;;3.55;;
69220;SDS011;56331;51.992;20.910;2023-02-03T16:43:44;6.30;;;3.15;;
69220;SDS011;56331;51.992;20.910;2023-02-03T16:46:29;6.25;;;3.10;;
69220;SDS011;56331;51.992;20.910;2023-02-03T16:49:14;6.80;;;3.02;;
69220;SDS011;56331;51.992;20.910;2023-02-03T16:52:03;7.17;;;2.98;;
69220;SDS011;56331;51.992;20.910;2023-02-03T16:54:27;6.07;;;3.30;;
69220;SDS011;56331;51.992;20.910;2023-02-03T16:56:54;6.03;;;3.42;;
69220;SDS011;56331;51.992;20.910;2023-02-03T16:59:21;6.22;;;3.45;;
69220;SDS011;56331;51.992;20.910;2023-02-03T17:01:47;6.17;;;3.55;;
69220;SDS011;56331;51.992;20.910;2023-02-03T17:04:13;5.67;;;3.55;;
69220;SDS011;56331;51.992;20.910;2023-02-03T17:06:41;5.33;;;3.08;;
69220;SDS011;56331;51.992;20.910;2023-02-03T17:09:08;6.83;;;3.25;;
69220;SDS011;56331;51.992;20.910;2023-02-03T17:11:35;6.25;;;3.45;;
69220;SDS011;56331;51.992;20.910;2023-02-03T17:14:03;9.33;;;3.10;;
69220;SDS011;56331;51.992;20.910;2023-02-03T17:16:30;4.30;;;2.98;;
69220;SDS011;56331;51.992;20.910;2023-02-03T17:18:57;8.58;;;3.15;;
69220;SDS011;56331;51.992;20.910;2023-02-03T17:21:25;4.55;;;3.00;;
69220;SDS011;56331;51.992;20.910;2023-02-03T17:23:53;4.55;;;3.10;;
69220;SDS011;56331;51.992;20.910;2023-02-03T17:26:20;4.87;;;3.20;;
69220;SDS011;56331;51.992;20.910;2023-02-03T17:28:46;4.80;;;2.87;;
69220;SDS011;56331;51.992;20.910;2023-02-03T17:31:14;5.60;;;2.90;;
69220;SDS011;56331;51.992;20.910;2023-02-03T17:33:41;6.70;;;3.60;;
69220;SDS011;56331;51.992;20.910;2023-02-03T17:36:10;7.15;;;3.10;;
69220;SDS011;56331;51.992;20.910;2023-02-03T17:38:44;4.75;;;2.77;;
69220;SDS011;56331;51.992;20.910;2023-02-03T17:41:12;5.60;;;3.12;;
69220;SDS011;56331;51.992;20.910;2023-02-03T17:43:40;7.12;;;3.25;;
69220;SDS011;56331;51.992;20.910;2023-02-03T17:46:07;7.45;;;3.12;;
69220;SDS011;56331;51.992;20.910;2023-02-03T17:48:36;5.87;;;3.10;;
69220;SDS011;56331;51.992;20.910;2023-02-03T17:51:04;4.47;;;2.90;;
69220;SDS011;56331;51.992;20.910;2023-02-03T17:53:42;4.80;;;2.55;;
69220;SDS011;56331;51.992;20.910;2023-02-03T17:58:54;6.00;;;3.20;;
69220;SDS011;56331;51.992;20.910;2023-02-03T18:01:24;4.87;;;2.90;;
69220;SDS011;56331;51.992;20.910;2023-02-03T18:03:52;5.47;;;2.98;;